Jeddah/Abdul Aziz, Saudi Arabia
Current Conditions -  °F | °C
As of 11:00 AM on Wednesday 22 Oct 2014 (Local Time) from OEJN Reporting Station
Clear Clear  
Wind Chill: 91°   Ceiling: Unl
Heat Index: 95°   Visibility: 6mi
Dew Point: 68°   Wind: 7mph
Humidity: 46%   Direction: 290°WNW
Pressure: 29.88"   Gusts: NA
Location:  21.67°N, 39.15°E
Report Text: OEJN 220800Z 29006KT CAVOK 33/20 Q1012 NOSIG
Loading
Personal Weather Stations






























Interactive Weather Map
Tropical Storm Tracking
New forecast layout! Learn more

10-Day Weather Forecast

Advertisements
Track Severe Weather on mobile